createdAt,value
2023-01-11T00:00:39.177Z,6.80
2023-01-11T00:03:06.754Z,6.70
2023-01-11T00:05:38.327Z,6.80
2023-01-11T00:08:05.976Z,6.70
2023-01-11T00:10:33.498Z,6.80
2023-01-11T00:13:01.742Z,6.70
2023-01-11T00:15:28.502Z,6.70
2023-01-11T00:17:55.510Z,6.70
2023-01-11T00:20:22.312Z,6.70
2023-01-11T00:22:49.055Z,6.80
2023-01-11T00:25:15.851Z,6.80
2023-01-11T00:27:42.618Z,6.70
2023-01-11T00:30:10.104Z,6.70
2023-01-11T00:32:36.808Z,6.60
2023-01-11T00:35:03.724Z,6.50
2023-01-11T00:37:30.488Z,6.40
2023-01-11T00:39:57.137Z,6.40
2023-01-11T00:42:42.266Z,6.30
2023-01-11T00:45:27.882Z,6.30
2023-01-11T00:47:57.685Z,6.30
2023-01-11T00:50:30.913Z,6.30
2023-01-11T00:52:59.136Z,6.30
2023-01-11T00:55:26.810Z,6.20
2023-01-11T00:57:54.846Z,6.20
2023-01-11T01:00:22.203Z,6.20
2023-01-11T01:02:49.626Z,6.20
2023-01-11T01:05:17.224Z,6.30
2023-01-11T01:07:44.357Z,6.30
2023-01-11T01:10:12.981Z,6.20
2023-01-11T01:12:58.207Z,6.30
2023-01-11T01:15:25.409Z,6.30
2023-01-11T01:17:56.006Z,6.20
2023-01-11T01:20:24.306Z,6.10
2023-01-11T01:22:51.028Z,6.10
2023-01-11T01:25:18.267Z,6.10
2023-01-11T01:27:45.141Z,6.20
2023-01-11T01:30:12.185Z,6.20
2023-01-11T01:32:39.618Z,6.20
2023-01-11T01:35:07.059Z,6.20
2023-01-11T01:37:33.714Z,6.20
2023-01-11T01:40:00.418Z,6.10
2023-01-11T01:42:27.211Z,6.00
2023-01-11T01:45:07.274Z,6.00
2023-01-11T01:47:45.670Z,6.00
2023-01-11T01:50:20.248Z,6.00
2023-01-11T01:52:51.830Z,5.90
2023-01-11T01:55:26.417Z,5.90
2023-01-11T01:57:55.035Z,5.90
2023-01-11T02:00:21.989Z,5.90
2023-01-11T02:02:49.624Z,5.90
2023-01-11T02:05:17.506Z,5.90
2023-01-11T02:07:46.305Z,5.90
2023-01-11T02:10:16.607Z,5.80
2023-01-11T02:13:14.442Z,5.80
2023-01-11T02:15:41.260Z,5.80
2023-01-11T02:18:13.862Z,5.90
2023-01-11T02:20:49.542Z,5.90
2023-01-11T02:23:16.309Z,5.80
2023-01-11T02:26:07.871Z,5.80
2023-01-11T02:28:39.409Z,5.70
2023-01-11T02:31:19.628Z,5.70
2023-01-11T02:33:52.106Z,5.70
2023-01-11T02:36:30.531Z,5.70
2023-01-11T02:39:17.519Z,5.70
2023-01-11T02:42:13.329Z,5.70
2023-01-11T02:45:02.818Z,5.70
2023-01-11T02:47:57.433Z,5.70
2023-01-11T02:50:42.302Z,5.70
2023-01-11T02:53:16.554Z,5.60
2023-01-11T02:55:48.522Z,5.60
2023-01-11T02:58:18.354Z,5.60
2023-01-11T03:00:46.471Z,5.60
2023-01-11T03:03:21.889Z,5.60
2023-01-11T03:06:08.703Z,5.70
2023-01-11T03:08:58.469Z,5.80
2023-01-11T03:12:29.522Z,5.80
2023-01-11T03:15:30.979Z,5.80
2023-01-11T03:18:23.938Z,5.80
2023-01-11T03:21:18.462Z,5.80
2023-01-11T03:23:56.991Z,5.80
2023-01-11T03:26:51.794Z,5.80
2023-01-11T03:29:32.420Z,5.80
2023-01-11T03:32:20.819Z,5.80
2023-01-11T03:35:05.485Z,5.80
2023-01-11T03:37:48.947Z,5.80
2023-01-11T03:40:29.363Z,5.80
2023-01-11T03:43:13.918Z,5.90
2023-01-11T03:45:58.741Z,5.80
2023-01-11T03:48:39.869Z,5.80
2023-01-11T03:51:11.947Z,5.80
2023-01-11T03:53:41.061Z,5.90
2023-01-11T03:56:11.781Z,5.90
2023-01-11T03:58:38.796Z,5.90
2023-01-11T04:01:06.091Z,5.80
2023-01-11T04:03:32.959Z,5.90
2023-01-11T04:06:03.013Z,5.80
2023-01-11T04:08:31.216Z,5.90
2023-01-11T04:10:58.131Z,5.90
2023-01-11T04:13:24.843Z,5.90
2023-01-11T04:15:53.507Z,5.90
2023-01-11T04:18:20.183Z,5.90
2023-01-11T04:20:47.075Z,5.90
2023-01-11T04:23:15.141Z,6.00
2023-01-11T04:25:41.816Z,6.00
2023-01-11T04:28:08.529Z,6.00
2023-01-11T04:30:36.042Z,6.10
2023-01-11T04:33:03.133Z,6.20
2023-01-11T04:35:29.849Z,6.10
2023-01-11T04:37:57.569Z,6.10
2023-01-11T04:40:25.581Z,6.30
2023-01-11T04:42:52.321Z,6.30
2023-01-11T04:45:19.530Z,6.30
2023-01-11T04:47:46.302Z,6.30
2023-01-11T04:50:13.169Z,6.30
2023-01-11T04:52:41.551Z,6.30
2023-01-11T04:55:09.552Z,6.30
2023-01-11T04:57:36.409Z,6.20
2023-01-11T05:00:10.648Z,6.20
2023-01-11T05:02:38.411Z,6.10
2023-01-11T05:05:06.980Z,6.10
2023-01-11T05:07:34.296Z,6.00
2023-01-11T05:10:01.059Z,6.00
2023-01-11T05:12:27.705Z,6.00
2023-01-11T05:14:54.637Z,6.00
2023-01-11T05:17:21.294Z,6.00
2023-01-11T05:19:48.003Z,6.10
2023-01-11T05:22:14.981Z,6.10
2023-01-11T05:24:41.665Z,6.10
2023-01-11T05:27:09.200Z,5.90
2023-01-11T05:29:35.879Z,5.80
2023-01-11T05:32:02.558Z,5.80
2023-01-11T05:34:29.300Z,5.60
2023-01-11T05:36:56.028Z,5.80
2023-01-11T05:39:23.903Z,5.80
2023-01-11T05:41:50.668Z,5.70
2023-01-11T05:44:36.735Z,5.70
2023-01-11T05:47:04.278Z,5.70
2023-01-11T05:49:31.103Z,5.70
2023-01-11T05:51:57.867Z,5.70
2023-01-11T05:54:24.886Z,5.60
2023-01-11T05:56:51.667Z,5.60
2023-01-11T05:59:18.609Z,5.50
2023-01-11T06:01:45.371Z,5.50
2023-01-11T06:04:12.105Z,5.50
2023-01-11T06:06:38.964Z,5.40
2023-01-11T06:09:05.799Z,5.30
2023-01-11T06:11:32.599Z,5.30
2023-01-11T06:13:59.391Z,5.30
2023-01-11T06:16:26.177Z,5.30
2023-01-11T06:18:54.257Z,5.30
2023-01-11T06:21:21.916Z,5.30
2023-01-11T06:23:51.019Z,5.30
2023-01-11T06:26:20.643Z,5.40
2023-01-11T06:28:48.066Z,5.40
2023-01-11T06:31:17.143Z,5.40
2023-01-11T06:33:44.885Z,5.50
2023-01-11T06:36:13.134Z,5.40
2023-01-11T06:38:40.265Z,5.40
2023-01-11T06:41:10.652Z,5.40
2023-01-11T06:43:38.716Z,5.30
2023-01-11T06:46:05.712Z,5.30
2023-01-11T06:48:32.565Z,5.20
2023-01-11T06:50:59.814Z,5.20
2023-01-11T06:53:29.135Z,5.20
2023-01-11T06:55:58.298Z,5.10
2023-01-11T06:58:26.250Z,5.10
2023-01-11T07:00:55.214Z,5.10
2023-01-11T07:03:24.375Z,5.10
2023-01-11T07:05:52.925Z,5.10
2023-01-11T07:08:20.237Z,5.10
2023-01-11T07:10:47.230Z,4.90
2023-01-11T07:13:17.632Z,5.20
2023-01-11T07:15:45.534Z,5.20
2023-01-11T07:18:12.420Z,5.20
2023-01-11T07:20:39.762Z,5.20
2023-01-11T07:23:07.717Z,5.20
2023-01-11T07:25:34.952Z,5.20
2023-01-11T07:28:04.718Z,5.20
2023-01-11T07:30:44.591Z,5.20
2023-01-11T07:33:18.887Z,5.20
2023-01-11T07:35:47.890Z,5.20
2023-01-11T07:38:14.733Z,5.20
2023-01-11T07:40:41.997Z,5.30
2023-01-11T07:43:14.332Z,5.30
2023-01-11T07:45:45.889Z,5.40
2023-01-11T07:48:14.038Z,5.40
2023-01-11T07:50:44.599Z,5.50
2023-01-11T07:53:12.305Z,5.60
2023-01-11T07:55:40.159Z,5.60
2023-01-11T07:58:11.430Z,5.60
2023-01-11T08:00:38.687Z,5.70
2023-01-11T08:03:05.557Z,5.70
2023-01-11T08:05:32.629Z,5.80
2023-01-11T08:07:59.381Z,5.90
2023-01-11T08:10:26.112Z,6.10
2023-01-11T08:13:11.546Z,6.20
2023-01-11T08:15:39.064Z,6.30
2023-01-11T08:18:06.498Z,6.30
2023-01-11T08:20:33.451Z,6.50
2023-01-11T08:23:05.163Z,6.50
2023-01-11T08:25:33.300Z,6.60
2023-01-11T08:28:05.404Z,6.60
2023-01-11T08:30:32.303Z,6.80
2023-01-11T08:33:01.659Z,7.00
2023-01-11T08:35:28.832Z,7.00
2023-01-11T08:37:55.507Z,7.20
2023-01-11T08:40:24.202Z,7.30
2023-01-11T08:43:00.197Z,7.40
2023-01-11T08:45:27.496Z,7.50
2023-01-11T08:47:54.841Z,7.60
2023-01-11T08:50:22.775Z,7.70
2023-01-11T08:52:51.156Z,7.70
2023-01-11T08:55:19.038Z,7.80
2023-01-11T08:57:46.261Z,7.90
2023-01-11T09:00:13.794Z,8.00
2023-01-11T09:02:40.765Z,8.00
2023-01-11T09:05:08.056Z,8.10
2023-01-11T09:07:34.826Z,8.20
2023-01-11T09:10:01.597Z,8.30
2023-01-11T09:12:28.382Z,8.40
2023-01-11T09:14:55.135Z,8.30
2023-01-11T09:17:21.952Z,8.40
2023-01-11T09:19:48.733Z,8.40
2023-01-11T09:22:15.596Z,8.50
2023-01-11T09:24:42.337Z,8.60
2023-01-11T09:27:11.499Z,8.70
2023-01-11T09:29:38.420Z,8.80
2023-01-11T09:32:05.957Z,8.90
2023-01-11T09:34:33.464Z,9.00
2023-01-11T09:37:02.627Z,9.10
2023-01-11T09:39:29.683Z,9.30
2023-01-11T09:42:06.200Z,9.40
2023-01-11T09:44:36.653Z,9.40
2023-01-11T09:47:17.654Z,9.40
2023-01-11T09:49:50.937Z,9.50
2023-01-11T09:52:29.981Z,9.60
2023-01-11T09:55:00.413Z,9.60
2023-01-11T09:58:06.703Z,9.60
2023-01-11T10:00:41.940Z,9.60
2023-01-11T10:03:17.488Z,9.60
2023-01-11T10:06:02.614Z,9.80
2023-01-11T10:18:32.894Z,9.90
2023-01-11T10:18:39.748Z,9.90
2023-01-11T10:20:40.898Z,10.00
2023-01-11T10:23:28.737Z,9.90
2023-01-11T10:25:58.806Z,10.00
2023-01-11T10:28:47.117Z,10.00
2023-01-11T10:31:45.713Z,10.20
2023-01-11T10:34:38.597Z,10.30
2023-01-11T10:37:20.837Z,10.30
2023-01-11T10:40:18.419Z,10.50
2023-01-11T10:42:59.966Z,10.40
2023-01-11T10:45:37.372Z,10.50
2023-01-11T10:48:07.469Z,10.40
2023-01-11T10:50:43.910Z,10.50
2023-01-11T10:53:28.330Z,10.60
2023-01-11T10:56:16.241Z,10.70
2023-01-11T10:58:46.449Z,10.70
2023-01-11T11:01:22.618Z,10.80
2023-01-11T11:04:16.640Z,10.80
2023-01-11T11:07:11.575Z,10.80
2023-01-11T11:09:48.321Z,10.90
2023-01-11T11:12:37.196Z,11.10
2023-01-11T11:15:08.804Z,11.20
2023-01-11T11:17:37.932Z,11.20
2023-01-11T11:20:31.908Z,11.10
2023-01-11T11:22:58.984Z,11.10
2023-01-11T11:25:31.171Z,11.30
2023-01-11T11:28:06.706Z,11.50
2023-01-11T11:30:39.261Z,11.40
2023-01-11T11:33:15.185Z,11.20
2023-01-11T11:35:45.755Z,11.30
2023-01-11T11:38:29.028Z,11.40
2023-01-11T11:41:17.227Z,11.40
2023-01-11T11:43:46.450Z,11.30
2023-01-11T11:46:20.334Z,11.20
2023-01-11T11:49:15.756Z,11.20
2023-01-11T11:51:45.520Z,11.30
2023-01-11T11:54:43.573Z,11.40
2023-01-11T11:57:23.376Z,11.30
2023-01-11T11:59:59.591Z,11.80
2023-01-11T12:02:29.701Z,12.00
2023-01-11T12:04:58.305Z,12.60
2023-01-11T12:07:29.349Z,12.90
2023-01-11T12:10:00.914Z,13.20
2023-01-11T12:12:29.488Z,13.00
2023-01-11T12:15:28.835Z,13.00
2023-01-11T12:18:15.399Z,12.80
2023-01-11T12:20:44.665Z,12.60
2023-01-11T12:23:26.117Z,12.50
2023-01-11T12:26:18.950Z,12.60
2023-01-11T12:29:02.864Z,12.60
2023-01-11T12:31:32.893Z,12.60
2023-01-11T12:34:18.390Z,12.70
2023-01-11T12:37:20.539Z,13.00
2023-01-11T12:40:01.914Z,13.40
2023-01-11T12:42:49.981Z,14.00
2023-01-11T12:45:26.829Z,14.10
2023-01-11T12:47:54.583Z,14.60
2023-01-11T12:50:30.591Z,14.20
2023-01-11T12:53:23.529Z,14.20
2023-01-11T12:56:03.742Z,14.00
2023-01-11T12:58:35.970Z,14.10
2023-01-11T13:01:30.429Z,14.20
2023-01-11T13:04:15.484Z,14.20
2023-01-11T13:06:58.898Z,14.40
2023-01-11T13:09:36.379Z,14.70
2023-01-11T13:12:24.792Z,14.90
2023-01-11T13:15:10.055Z,15.10
2023-01-11T13:18:05.347Z,15.20
2023-01-11T13:20:59.462Z,15.60
2023-01-11T13:23:45.600Z,15.70
2023-01-11T13:26:27.725Z,15.50
2023-01-11T13:29:01.014Z,15.20
2023-01-11T13:31:29.100Z,14.70
2023-01-11T13:34:03.482Z,14.20
2023-01-11T13:36:38.675Z,14.00
2023-01-11T13:39:16.159Z,13.90
2023-01-11T13:41:56.855Z,14.10
2023-01-11T13:44:37.974Z,14.00
2023-01-11T13:47:36.776Z,13.90
2023-01-11T13:50:28.041Z,14.20
2023-01-11T13:53:16.953Z,14.40
2023-01-11T13:55:55.168Z,14.20
2023-01-11T13:58:29.037Z,14.20
2023-01-11T14:01:02.097Z,14.40
2023-01-11T14:03:31.225Z,14.40
2023-01-11T14:06:19.175Z,14.90
2023-01-11T14:08:48.680Z,14.90
2023-01-11T14:11:22.348Z,15.10
2023-01-11T14:14:26.060Z,15.40
2023-01-11T14:17:20.544Z,15.00
2023-01-11T14:20:05.430Z,14.60
2023-01-11T14:22:32.185Z,14.30
2023-01-11T14:25:04.452Z,13.80
2023-01-11T14:27:55.271Z,13.80
2023-01-11T14:30:46.987Z,13.40
2023-01-11T14:33:16.783Z,13.00
2023-01-11T14:36:04.768Z,12.70
2023-01-11T14:39:18.914Z,12.60
2023-01-11T14:42:08.587Z,12.40
2023-01-11T14:44:49.837Z,12.30
2023-01-11T14:47:35.101Z,12.20
2023-01-11T14:50:18.640Z,12.00
2023-01-11T14:52:46.072Z,11.90
2023-01-11T14:55:26.968Z,11.80
2023-01-11T14:57:56.409Z,11.80
2023-01-11T15:00:23.082Z,11.70
2023-01-11T15:03:00.347Z,11.60
2023-01-11T15:05:30.959Z,11.50
2023-01-11T15:08:13.291Z,11.40
2023-01-11T15:10:49.408Z,11.50
2023-01-11T15:13:46.365Z,11.50
2023-01-11T15:16:48.121Z,11.50
2023-01-11T15:19:34.149Z,11.30
2023-01-11T15:22:02.219Z,11.10
2023-01-11T15:24:36.849Z,11.10
2023-01-11T15:27:03.948Z,10.90
2023-01-11T15:29:39.167Z,10.80
2023-01-11T15:32:26.127Z,10.70
2023-01-11T15:34:53.180Z,10.70
2023-01-11T15:37:47.992Z,10.80
2023-01-11T15:40:21.988Z,10.80
2023-01-11T15:43:18.471Z,10.70
2023-01-11T15:46:04.089Z,10.80
2023-01-11T15:49:07.574Z,10.70
2023-01-11T15:52:04.726Z,10.50
2023-01-11T15:54:55.858Z,10.40
2023-01-11T15:58:01.310Z,10.30
2023-01-11T16:00:49.385Z,10.30
2023-01-11T16:03:28.205Z,10.10
2023-01-11T16:06:17.684Z,10.10
2023-01-11T16:08:58.548Z,10.10
2023-01-11T16:11:40.436Z,10.10
2023-01-11T16:14:31.991Z,10.00
2023-01-11T16:16:59.082Z,10.00
2023-01-11T16:19:31.237Z,9.90
2023-01-11T16:22:03.493Z,9.90
2023-01-11T16:24:39.361Z,9.90
2023-01-11T16:27:07.566Z,9.90
2023-01-11T16:29:37.127Z,9.90
2023-01-11T16:32:06.159Z,9.70
2023-01-11T16:34:44.906Z,9.70
2023-01-11T16:37:26.474Z,9.60
2023-01-11T16:39:57.839Z,9.60
2023-01-11T16:42:26.593Z,9.40
2023-01-11T16:44:59.421Z,9.30
2023-01-11T16:47:26.230Z,9.20
2023-01-11T16:50:28.834Z,9.10
2023-01-11T16:53:02.315Z,9.00
2023-01-11T16:55:39.940Z,8.90
2023-01-11T16:58:21.339Z,8.90
2023-01-11T17:00:58.910Z,8.70
2023-01-11T17:03:31.236Z,8.60
2023-01-11T17:06:10.248Z,8.60
2023-01-11T17:08:38.263Z,8.70
2023-01-11T17:11:31.553Z,8.60
2023-01-11T17:14:19.337Z,8.60
2023-01-11T17:16:52.746Z,8.70
2023-01-11T17:19:23.231Z,8.70
2023-01-11T17:21:58.631Z,8.70
2023-01-11T17:24:27.055Z,8.80
2023-01-11T17:27:00.296Z,8.80
2023-01-11T17:29:39.553Z,8.90
2023-01-11T17:32:13.056Z,8.80
2023-01-11T17:34:40.317Z,9.00
2023-01-11T17:37:12.683Z,9.10
2023-01-11T17:39:44.477Z,9.20
2023-01-11T17:42:32.723Z,9.20
2023-01-11T17:45:15.717Z,9.00
2023-01-11T17:47:47.538Z,8.90
2023-01-11T17:50:32.245Z,8.80
2023-01-11T17:53:12.614Z,8.70
2023-01-11T17:55:56.731Z,8.70
2023-01-11T17:58:34.474Z,8.60
2023-01-11T18:01:19.164Z,8.60
2023-01-11T18:03:50.301Z,8.70
2023-01-11T18:06:23.019Z,8.70
2023-01-11T18:08:52.895Z,8.70
2023-01-11T18:11:32.367Z,8.80
2023-01-11T18:14:02.492Z,8.90
2023-01-11T18:16:29.480Z,8.80
2023-01-11T18:18:56.864Z,8.90
2023-01-11T18:21:26.533Z,8.90
2023-01-11T18:24:11.425Z,8.90
2023-01-11T18:26:42.862Z,8.80
2023-01-11T18:29:37.676Z,8.70
2023-01-11T18:32:05.826Z,8.70
2023-01-11T18:34:32.590Z,8.70
2023-01-11T18:37:00.690Z,8.70
2023-01-11T18:39:27.796Z,8.70
2023-01-11T18:42:07.233Z,8.70
2023-01-11T18:44:35.163Z,8.70
2023-01-11T18:47:11.085Z,8.80
2023-01-11T18:49:37.833Z,8.70
2023-01-11T18:52:05.452Z,8.80
2023-01-11T18:54:32.441Z,8.90
2023-01-11T18:56:59.224Z,8.90
2023-01-11T18:59:26.140Z,9.10
2023-01-11T19:02:01.557Z,9.10
2023-01-11T19:04:38.711Z,9.20
2023-01-11T19:07:05.573Z,9.20
2023-01-11T19:09:32.318Z,9.30
2023-01-11T19:11:59.038Z,9.40
2023-01-11T19:14:25.793Z,9.40
2023-01-11T19:16:52.566Z,9.20
2023-01-11T19:19:19.389Z,9.10
2023-01-11T19:21:46.125Z,9.00
2023-01-11T19:24:12.791Z,8.80
2023-01-11T19:26:39.562Z,8.70
2023-01-11T19:29:06.475Z,8.70
2023-01-11T19:31:33.315Z,8.50
2023-01-11T19:34:00.049Z,8.40
2023-01-11T19:36:29.143Z,8.40
2023-01-11T19:38:55.883Z,8.50
2023-01-11T19:41:22.581Z,8.40
2023-01-11T19:43:49.643Z,8.50
2023-01-11T19:46:30.166Z,8.90
2023-01-11T19:48:58.180Z,9.00
2023-01-11T19:51:24.843Z,9.00
2023-01-11T19:53:51.672Z,8.90
2023-01-11T19:56:18.681Z,8.90
2023-01-11T19:58:45.391Z,8.90
2023-01-11T20:01:12.893Z,8.90
2023-01-11T20:03:41.679Z,8.90
2023-01-11T20:06:09.168Z,8.90
2023-01-11T20:08:38.558Z,9.10
2023-01-11T20:11:08.046Z,9.20
2023-01-11T20:13:35.337Z,9.20
2023-01-11T20:16:06.850Z,9.20
2023-01-11T20:18:33.907Z,9.20
2023-01-11T20:21:00.718Z,9.10
2023-01-11T20:23:30.480Z,9.00
2023-01-11T20:26:01.967Z,9.10
2023-01-11T20:28:28.730Z,9.30
2023-01-11T20:30:59.677Z,9.30
2023-01-11T20:33:27.476Z,9.20
2023-01-11T20:35:54.212Z,9.30
2023-01-11T20:38:20.903Z,9.30
2023-01-11T20:40:47.695Z,9.30
2023-01-11T20:43:14.407Z,9.30
2023-01-11T20:45:41.133Z,9.20
2023-01-11T20:48:08.037Z,9.20
2023-01-11T20:50:36.177Z,9.20
2023-01-11T20:53:03.623Z,9.20
2023-01-11T20:55:30.648Z,9.20
2023-01-11T20:57:58.428Z,9.20
2023-01-11T21:00:25.458Z,9.10
2023-01-11T21:02:52.341Z,9.00
2023-01-11T21:05:19.116Z,9.00
2023-01-11T21:07:46.897Z,9.00
2023-01-11T21:10:13.655Z,9.00
2023-01-11T21:12:40.333Z,9.00
2023-01-11T21:15:10.505Z,8.90
2023-01-11T21:17:37.987Z,8.70
2023-01-11T21:20:05.356Z,8.90
2023-01-11T21:22:32.023Z,8.80
2023-01-11T21:24:58.785Z,8.80
2023-01-11T21:27:25.719Z,8.70
2023-01-11T21:29:52.448Z,8.70
2023-01-11T21:32:19.299Z,8.70
2023-01-11T21:34:46.022Z,8.70
2023-01-11T21:37:12.699Z,8.70
2023-01-11T21:39:39.896Z,8.60
2023-01-11T21:42:06.605Z,8.60
2023-01-11T21:44:34.073Z,8.60
2023-01-11T21:47:02.651Z,8.60
2023-01-11T21:49:30.036Z,8.60
2023-01-11T21:51:56.847Z,8.60
2023-01-11T21:54:24.054Z,8.50
2023-01-11T21:56:51.737Z,8.60
2023-01-11T21:59:20.263Z,8.50
2023-01-11T22:01:49.512Z,8.50
2023-01-11T22:04:19.009Z,8.60
2023-01-11T22:06:50.995Z,8.60
2023-01-11T22:09:18.698Z,8.60
2023-01-11T22:11:45.812Z,8.50
2023-01-11T22:14:12.865Z,8.40
2023-01-11T22:16:40.669Z,8.40
2023-01-11T22:19:08.463Z,8.20
2023-01-11T22:21:36.685Z,8.10
2023-01-11T22:24:03.596Z,8.00
2023-01-11T22:26:33.322Z,8.10
2023-01-11T22:29:12.636Z,8.00
2023-01-11T22:31:52.503Z,7.90
2023-01-11T22:34:19.708Z,7.90
2023-01-11T22:36:47.152Z,7.80
2023-01-11T22:39:15.146Z,7.70
2023-01-11T22:41:45.654Z,7.70
2023-01-11T22:44:12.731Z,7.70
2023-01-11T22:46:39.786Z,7.60
2023-01-11T22:49:07.076Z,7.50
2023-01-11T22:51:34.162Z,7.60
2023-01-11T22:54:00.882Z,7.70
2023-01-11T22:56:29.340Z,7.60
2023-01-11T22:58:57.154Z,7.50
2023-01-11T23:01:38.561Z,7.30
2023-01-11T23:04:06.706Z,7.30
2023-01-11T23:06:36.438Z,7.10
2023-01-11T23:09:05.686Z,7.20
2023-01-11T23:11:55.393Z,7.20
2023-01-11T23:14:22.660Z,7.20
2023-01-11T23:16:50.575Z,7.10
2023-01-11T23:19:19.947Z,7.00
2023-01-11T23:21:47.689Z,6.90
2023-01-11T23:24:16.367Z,6.80
2023-01-11T23:26:44.295Z,6.80
2023-01-11T23:29:12.019Z,6.80
2023-01-11T23:31:38.804Z,6.70
2023-01-11T23:34:08.180Z,6.80
2023-01-11T23:36:37.600Z,7.00
2023-01-11T23:39:06.051Z,6.90
2023-01-11T23:41:51.312Z,6.80
2023-01-11T23:44:18.602Z,6.80
2023-01-11T23:47:04.932Z,6.70
2023-01-11T23:49:32.557Z,6.70
2023-01-11T23:51:59.989Z,6.60
2023-01-11T23:54:31.967Z,6.50
2023-01-11T23:57:00.068Z,6.50
2023-01-11T23:59:27.080Z,6.50
